sensor_id;sensor_type;location;lat;lon;timestamp;P1;durP1;ratioP1;P2;durP2;ratioP2
38182;SDS011;23991;52.430;10.586;2022-12-18T00:00:27;34.53;;;17.67;;
38182;SDS011;23991;52.430;10.586;2022-12-18T00:03:17;32.47;;;16.33;;
38182;SDS011;23991;52.430;10.586;2022-12-18T00:06:01;32.85;;;17.70;;
38182;SDS011;23991;52.430;10.586;2022-12-18T00:14:39;32.35;;;17.13;;
38182;SDS011;23991;52.430;10.586;2022-12-18T00:17:30;42.65;;;17.70;;
38182;SDS011;23991;52.430;10.586;2022-12-18T00:27:36;28.45;;;15.52;;
38182;SDS011;23991;52.430;10.586;2022-12-18T00:34:48;30.60;;;16.33;;
38182;SDS011;23991;52.430;10.586;2022-12-18T00:37:14;29.25;;;15.85;;
38182;SDS011;23991;52.430;10.586;2022-12-18T00:39:39;32.35;;;16.85;;
38182;SDS011;23991;52.430;10.586;2022-12-18T00:42:05;28.13;;;14.82;;
38182;SDS011;23991;52.430;10.586;2022-12-18T00:44:49;30.15;;;15.95;;
38182;SDS011;23991;52.430;10.586;2022-12-18T00:47:15;33.80;;;16.33;;
38182;SDS011;23991;52.430;10.586;2022-12-18T00:49:40;33.55;;;16.02;;
38182;SDS011;23991;52.430;10.586;2022-12-18T00:52:06;27.60;;;15.65;;
38182;SDS011;23991;52.430;10.586;2022-12-18T00:54:31;31.52;;;16.73;;
38182;SDS011;23991;52.430;10.586;2022-12-18T00:56:57;32.00;;;15.65;;
38182;SDS011;23991;52.430;10.586;2022-12-18T00:59:22;30.58;;;15.30;;
38182;SDS011;23991;52.430;10.586;2022-12-18T01:01:48;30.60;;;15.07;;
38182;SDS011;23991;52.430;10.586;2022-12-18T01:04:13;29.92;;;15.15;;
38182;SDS011;23991;52.430;10.586;2022-12-18T01:06:40;27.88;;;14.80;;
38182;SDS011;23991;52.430;10.586;2022-12-18T01:09:05;30.15;;;15.60;;
38182;SDS011;23991;52.430;10.586;2022-12-18T01:11:31;30.88;;;15.73;;
38182;SDS011;23991;52.430;10.586;2022-12-18T01:13:56;28.30;;;14.18;;
38182;SDS011;23991;52.430;10.586;2022-12-18T01:16:22;26.85;;;14.82;;
38182;SDS011;23991;52.430;10.586;2022-12-18T01:18:50;32.72;;;16.15;;
38182;SDS011;23991;52.430;10.586;2022-12-18T01:23:43;28.17;;;13.63;;
38182;SDS011;23991;52.430;10.586;2022-12-18T01:26:09;29.45;;;16.10;;
38182;SDS011;23991;52.430;10.586;2022-12-18T01:28:39;28.83;;;14.63;;
38182;SDS011;23991;52.430;10.586;2022-12-18T01:31:09;25.95;;;14.75;;
38182;SDS011;23991;52.430;10.586;2022-12-18T01:33:48;27.58;;;14.70;;
38182;SDS011;23991;52.430;10.586;2022-12-18T01:38:48;24.52;;;13.82;;
38182;SDS011;23991;52.430;10.586;2022-12-18T01:41:15;28.50;;;15.43;;
38182;SDS011;23991;52.430;10.586;2022-12-18T01:43:48;28.83;;;15.50;;
38182;SDS011;23991;52.430;10.586;2022-12-18T01:46:19;29.02;;;14.40;;
38182;SDS011;23991;52.430;10.586;2022-12-18T01:48:47;25.38;;;14.23;;
38182;SDS011;23991;52.430;10.586;2022-12-18T01:51:16;31.35;;;15.65;;
38182;SDS011;23991;52.430;10.586;2022-12-18T01:53:42;25.33;;;13.43;;
38182;SDS011;23991;52.430;10.586;2022-12-18T01:56:11;30.77;;;15.50;;
38182;SDS011;23991;52.430;10.586;2022-12-18T01:58:41;28.52;;;14.60;;
38182;SDS011;23991;52.430;10.586;2022-12-18T02:01:13;30.05;;;15.35;;
38182;SDS011;23991;52.430;10.586;2022-12-18T02:03:42;26.77;;;15.20;;
38182;SDS011;23991;52.430;10.586;2022-12-18T02:06:16;31.83;;;15.85;;
38182;SDS011;23991;52.430;10.586;2022-12-18T02:14:16;31.60;;;15.38;;
38182;SDS011;23991;52.430;10.586;2022-12-18T02:16:53;27.15;;;15.48;;
38182;SDS011;23991;52.430;10.586;2022-12-18T02:22:13;25.80;;;14.70;;
38182;SDS011;23991;52.430;10.586;2022-12-18T02:27:40;29.08;;;13.70;;
38182;SDS011;23991;52.430;10.586;2022-12-18T02:30:09;26.60;;;13.63;;
38182;SDS011;23991;52.430;10.586;2022-12-18T02:32:37;25.15;;;13.57;;
38182;SDS011;23991;52.430;10.586;2022-12-18T02:35:06;27.83;;;13.93;;
38182;SDS011;23991;52.430;10.586;2022-12-18T02:37:34;26.80;;;13.93;;
38182;SDS011;23991;52.430;10.586;2022-12-18T02:40:01;28.00;;;14.43;;
38182;SDS011;23991;52.430;10.586;2022-12-18T02:42:28;29.52;;;13.20;;
38182;SDS011;23991;52.430;10.586;2022-12-18T02:44:54;33.00;;;16.05;;
38182;SDS011;23991;52.430;10.586;2022-12-18T02:47:22;24.75;;;13.50;;
38182;SDS011;23991;52.430;10.586;2022-12-18T02:52:30;25.85;;;13.48;;
38182;SDS011;23991;52.430;10.586;2022-12-18T03:03:24;28.02;;;13.45;;
38182;SDS011;23991;52.430;10.586;2022-12-18T03:05:57;26.73;;;14.38;;
38182;SDS011;23991;52.430;10.586;2022-12-18T03:08:27;27.65;;;13.60;;
38182;SDS011;23991;52.430;10.586;2022-12-18T03:10:59;31.17;;;13.63;;
38182;SDS011;23991;52.430;10.586;2022-12-18T03:16:04;24.38;;;13.70;;
38182;SDS011;23991;52.430;10.586;2022-12-18T03:21:04;24.73;;;14.30;;
38182;SDS011;23991;52.430;10.586;2022-12-18T03:23:33;24.70;;;13.10;;
38182;SDS011;23991;52.430;10.586;2022-12-18T03:26:05;28.08;;;14.18;;
38182;SDS011;23991;52.430;10.586;2022-12-18T03:28:38;29.35;;;14.15;;
38182;SDS011;23991;52.430;10.586;2022-12-18T03:31:10;24.23;;;13.18;;
38182;SDS011;23991;52.430;10.586;2022-12-18T03:33:43;29.08;;;15.30;;
38182;SDS011;23991;52.430;10.586;2022-12-18T03:36:15;24.30;;;14.10;;
38182;SDS011;23991;52.430;10.586;2022-12-18T03:38:41;26.98;;;13.65;;
38182;SDS011;23991;52.430;10.586;2022-12-18T03:49:19;33.38;;;15.25;;
38182;SDS011;23991;52.430;10.586;2022-12-18T03:51:59;28.30;;;14.45;;
38182;SDS011;23991;52.430;10.586;2022-12-18T03:54:37;34.08;;;14.13;;
38182;SDS011;23991;52.430;10.586;2022-12-18T03:57:19;30.80;;;15.73;;
38182;SDS011;23991;52.430;10.586;2022-12-18T03:59:49;26.83;;;13.20;;
38182;SDS011;23991;52.430;10.586;2022-12-18T04:02:19;32.22;;;15.38;;
38182;SDS011;23991;52.430;10.586;2022-12-18T04:04:47;31.58;;;15.02;;
38182;SDS011;23991;52.430;10.586;2022-12-18T04:07:18;29.27;;;13.85;;
38182;SDS011;23991;52.430;10.586;2022-12-18T04:09:45;24.35;;;12.57;;
38182;SDS011;23991;52.430;10.586;2022-12-18T04:12:13;21.50;;;12.02;;
38182;SDS011;23991;52.430;10.586;2022-12-18T04:14:38;26.38;;;12.15;;
38182;SDS011;23991;52.430;10.586;2022-12-18T04:17:04;28.08;;;11.85;;
38182;SDS011;23991;52.430;10.586;2022-12-18T04:19:29;23.52;;;12.80;;
38182;SDS011;23991;52.430;10.586;2022-12-18T04:21:55;25.55;;;12.35;;
38182;SDS011;23991;52.430;10.586;2022-12-18T04:24:21;24.88;;;13.35;;
38182;SDS011;23991;52.430;10.586;2022-12-18T04:26:46;23.50;;;12.25;;
38182;SDS011;23991;52.430;10.586;2022-12-18T04:29:12;31.15;;;13.30;;
38182;SDS011;23991;52.430;10.586;2022-12-18T04:31:37;28.40;;;13.55;;
38182;SDS011;23991;52.430;10.586;2022-12-18T04:34:03;27.23;;;12.23;;
38182;SDS011;23991;52.430;10.586;2022-12-18T04:36:29;25.13;;;13.18;;
38182;SDS011;23991;52.430;10.586;2022-12-18T04:38:54;28.75;;;13.70;;
38182;SDS011;23991;52.430;10.586;2022-12-18T04:41:20;28.13;;;12.95;;
38182;SDS011;23991;52.430;10.586;2022-12-18T04:43:46;26.38;;;13.18;;
38182;SDS011;23991;52.430;10.586;2022-12-18T04:46:11;28.67;;;13.73;;
38182;SDS011;23991;52.430;10.586;2022-12-18T04:48:37;25.08;;;13.20;;
38182;SDS011;23991;52.430;10.586;2022-12-18T04:51:03;28.52;;;15.30;;
38182;SDS011;23991;52.430;10.586;2022-12-18T04:53:30;28.70;;;15.18;;
38182;SDS011;23991;52.430;10.586;2022-12-18T04:56:30;29.42;;;14.25;;
38182;SDS011;23991;52.430;10.586;2022-12-18T04:58:47;30.55;;;15.73;;
38182;SDS011;23991;52.430;10.586;2022-12-18T05:01:14;35.78;;;16.23;;
38182;SDS011;23991;52.430;10.586;2022-12-18T05:03:41;32.17;;;16.05;;
38182;SDS011;23991;52.430;10.586;2022-12-18T05:06:07;31.02;;;16.15;;
38182;SDS011;23991;52.430;10.586;2022-12-18T05:08:33;31.08;;;16.05;;
38182;SDS011;23991;52.430;10.586;2022-12-18T05:11:06;31.05;;;17.17;;
38182;SDS011;23991;52.430;10.586;2022-12-18T05:13:34;30.98;;;15.43;;
38182;SDS011;23991;52.430;10.586;2022-12-18T05:16:01;31.60;;;16.13;;
38182;SDS011;23991;52.430;10.586;2022-12-18T05:18:27;39.20;;;18.10;;
38182;SDS011;23991;52.430;10.586;2022-12-18T05:20:53;31.98;;;15.93;;
38182;SDS011;23991;52.430;10.586;2022-12-18T05:23:20;29.35;;;15.57;;
38182;SDS011;23991;52.430;10.586;2022-12-18T05:26:07;31.98;;;15.75;;
38182;SDS011;23991;52.430;10.586;2022-12-18T05:28:33;34.20;;;16.92;;
38182;SDS011;23991;52.430;10.586;2022-12-18T05:31:00;37.03;;;16.67;;
38182;SDS011;23991;52.430;10.586;2022-12-18T05:33:28;30.42;;;15.35;;
38182;SDS011;23991;52.430;10.586;2022-12-18T05:35:57;32.58;;;16.10;;
38182;SDS011;23991;52.430;10.586;2022-12-18T05:38:28;31.10;;;15.57;;
38182;SDS011;23991;52.430;10.586;2022-12-18T05:40:55;36.45;;;17.77;;
38182;SDS011;23991;52.430;10.586;2022-12-18T05:43:21;33.90;;;18.05;;
38182;SDS011;23991;52.430;10.586;2022-12-18T05:45:48;36.95;;;18.45;;
38182;SDS011;23991;52.430;10.586;2022-12-18T05:48:14;35.35;;;17.58;;
38182;SDS011;23991;52.430;10.586;2022-12-18T05:50:41;31.25;;;17.33;;
38182;SDS011;23991;52.430;10.586;2022-12-18T05:53:08;32.13;;;17.27;;
38182;SDS011;23991;52.430;10.586;2022-12-18T05:55:34;33.67;;;17.08;;
38182;SDS011;23991;52.430;10.586;2022-12-18T05:58:02;37.85;;;17.83;;
38182;SDS011;23991;52.430;10.586;2022-12-18T06:00:28;35.35;;;16.05;;
38182;SDS011;23991;52.430;10.586;2022-12-18T06:02:54;31.63;;;15.13;;
38182;SDS011;23991;52.430;10.586;2022-12-18T06:05:20;32.80;;;15.50;;
38182;SDS011;23991;52.430;10.586;2022-12-18T06:07:45;30.13;;;14.30;;
38182;SDS011;23991;52.430;10.586;2022-12-18T06:10:11;29.65;;;14.63;;
38182;SDS011;23991;52.430;10.586;2022-12-18T06:12:37;32.85;;;16.30;;
38182;SDS011;23991;52.430;10.586;2022-12-18T06:15:02;33.38;;;15.93;;
38182;SDS011;23991;52.430;10.586;2022-12-18T06:17:29;36.25;;;18.15;;
38182;SDS011;23991;52.430;10.586;2022-12-18T06:19:57;42.25;;;19.38;;
38182;SDS011;23991;52.430;10.586;2022-12-18T06:22:22;44.47;;;19.17;;
38182;SDS011;23991;52.430;10.586;2022-12-18T06:24:49;46.58;;;19.23;;
38182;SDS011;23991;52.430;10.586;2022-12-18T06:27:15;41.85;;;18.80;;
38182;SDS011;23991;52.430;10.586;2022-12-18T06:29:41;38.15;;;18.13;;
38182;SDS011;23991;52.430;10.586;2022-12-18T06:32:06;47.25;;;17.70;;
38182;SDS011;23991;52.430;10.586;2022-12-18T06:34:32;34.92;;;16.00;;
38182;SDS011;23991;52.430;10.586;2022-12-18T06:36:58;34.67;;;16.20;;
38182;SDS011;23991;52.430;10.586;2022-12-18T06:39:24;35.20;;;15.35;;
38182;SDS011;23991;52.430;10.586;2022-12-18T06:41:52;30.45;;;14.75;;
38182;SDS011;23991;52.430;10.586;2022-12-18T06:44:18;32.53;;;16.52;;
38182;SDS011;23991;52.430;10.586;2022-12-18T06:46:43;35.75;;;17.10;;
38182;SDS011;23991;52.430;10.586;2022-12-18T06:49:09;31.52;;;14.20;;
38182;SDS011;23991;52.430;10.586;2022-12-18T06:51:35;34.17;;;14.80;;
38182;SDS011;23991;52.430;10.586;2022-12-18T06:54:00;31.08;;;13.45;;
38182;SDS011;23991;52.430;10.586;2022-12-18T06:56:26;31.40;;;14.18;;
38182;SDS011;23991;52.430;10.586;2022-12-18T06:58:53;28.80;;;13.55;;
38182;SDS011;23991;52.430;10.586;2022-12-18T07:01:19;29.52;;;13.65;;
38182;SDS011;23991;52.430;10.586;2022-12-18T07:03:46;25.58;;;13.43;;
38182;SDS011;23991;52.430;10.586;2022-12-18T07:06:13;30.15;;;13.60;;
38182;SDS011;23991;52.430;10.586;2022-12-18T07:08:43;27.90;;;13.15;;
38182;SDS011;23991;52.430;10.586;2022-12-18T07:11:09;25.02;;;12.40;;
38182;SDS011;23991;52.430;10.586;2022-12-18T07:13:35;24.00;;;12.05;;
38182;SDS011;23991;52.430;10.586;2022-12-18T07:16:05;26.75;;;14.13;;
38182;SDS011;23991;52.430;10.586;2022-12-18T07:18:32;26.15;;;12.95;;
38182;SDS011;23991;52.430;10.586;2022-12-18T07:20:58;29.05;;;12.23;;
38182;SDS011;23991;52.430;10.586;2022-12-18T07:23:28;25.98;;;12.77;;
38182;SDS011;23991;52.430;10.586;2022-12-18T07:25:54;26.60;;;12.52;;
38182;SDS011;23991;52.430;10.586;2022-12-18T07:28:20;28.13;;;13.07;;
38182;SDS011;23991;52.430;10.586;2022-12-18T07:30:45;25.55;;;13.30;;
38182;SDS011;23991;52.430;10.586;2022-12-18T07:33:11;22.50;;;11.45;;
38182;SDS011;23991;52.430;10.586;2022-12-18T07:35:40;29.33;;;13.63;;
38182;SDS011;23991;52.430;10.586;2022-12-18T07:38:05;24.10;;;12.30;;
38182;SDS011;23991;52.430;10.586;2022-12-18T07:40:31;27.00;;;13.05;;
38182;SDS011;23991;52.430;10.586;2022-12-18T07:42:56;26.95;;;13.32;;
38182;SDS011;23991;52.430;10.586;2022-12-18T07:45:22;25.13;;;12.32;;
38182;SDS011;23991;52.430;10.586;2022-12-18T07:47:47;29.10;;;13.00;;
38182;SDS011;23991;52.430;10.586;2022-12-18T07:50:13;26.92;;;13.45;;
38182;SDS011;23991;52.430;10.586;2022-12-18T07:52:39;30.85;;;13.43;;
38182;SDS011;23991;52.430;10.586;2022-12-18T07:55:04;30.10;;;14.23;;
38182;SDS011;23991;52.430;10.586;2022-12-18T07:57:30;30.27;;;14.30;;
38182;SDS011;23991;52.430;10.586;2022-12-18T07:59:56;26.25;;;13.95;;
38182;SDS011;23991;52.430;10.586;2022-12-18T08:02:21;31.33;;;13.60;;
38182;SDS011;23991;52.430;10.586;2022-12-18T08:04:47;26.83;;;12.38;;
38182;SDS011;23991;52.430;10.586;2022-12-18T08:07:12;25.30;;;13.68;;
38182;SDS011;23991;52.430;10.586;2022-12-18T08:09:38;31.35;;;13.85;;
38182;SDS011;23991;52.430;10.586;2022-12-18T08:12:03;24.88;;;13.25;;
38182;SDS011;23991;52.430;10.586;2022-12-18T08:14:29;29.67;;;13.77;;
38182;SDS011;23991;52.430;10.586;2022-12-18T08:16:55;33.25;;;14.50;;
38182;SDS011;23991;52.430;10.586;2022-12-18T08:19:20;30.55;;;14.20;;
38182;SDS011;23991;52.430;10.586;2022-12-18T08:21:46;32.88;;;15.38;;
38182;SDS011;23991;52.430;10.586;2022-12-18T08:24:11;37.25;;;16.35;;
38182;SDS011;23991;52.430;10.586;2022-12-18T08:26:37;36.42;;;15.98;;
38182;SDS011;23991;52.430;10.586;2022-12-18T08:29:03;36.97;;;16.85;;
38182;SDS011;23991;52.430;10.586;2022-12-18T08:31:29;31.23;;;16.40;;
38182;SDS011;23991;52.430;10.586;2022-12-18T08:33:56;36.08;;;16.60;;
38182;SDS011;23991;52.430;10.586;2022-12-18T08:36:22;35.80;;;18.17;;
38182;SDS011;23991;52.430;10.586;2022-12-18T08:38:48;36.38;;;17.67;;
38182;SDS011;23991;52.430;10.586;2022-12-18T08:41:15;30.45;;;15.05;;
38182;SDS011;23991;52.430;10.586;2022-12-18T08:43:41;33.55;;;15.63;;
38182;SDS011;23991;52.430;10.586;2022-12-18T08:46:26;28.33;;;15.13;;
38182;SDS011;23991;52.430;10.586;2022-12-18T08:48:56;29.27;;;13.63;;
38182;SDS011;23991;52.430;10.586;2022-12-18T08:51:21;28.30;;;15.07;;
38182;SDS011;23991;52.430;10.586;2022-12-18T08:53:47;26.40;;;14.10;;
38182;SDS011;23991;52.430;10.586;2022-12-18T08:56:13;24.40;;;12.73;;
38182;SDS011;23991;52.430;10.586;2022-12-18T08:58:39;26.48;;;13.32;;
38182;SDS011;23991;52.430;10.586;2022-12-18T09:01:07;23.77;;;12.75;;
38182;SDS011;23991;52.430;10.586;2022-12-18T09:03:34;27.15;;;12.13;;
38182;SDS011;23991;52.430;10.586;2022-12-18T09:06:00;23.45;;;12.88;;
38182;SDS011;23991;52.430;10.586;2022-12-18T09:08:26;22.02;;;12.68;;
38182;SDS011;23991;52.430;10.586;2022-12-18T09:10:52;22.75;;;11.57;;
38182;SDS011;23991;52.430;10.586;2022-12-18T09:13:18;26.45;;;13.32;;
38182;SDS011;23991;52.430;10.586;2022-12-18T09:15:45;23.98;;;12.45;;
38182;SDS011;23991;52.430;10.586;2022-12-18T09:18:13;24.10;;;12.50;;
38182;SDS011;23991;52.430;10.586;2022-12-18T09:20:40;25.25;;;13.00;;
38182;SDS011;23991;52.430;10.586;2022-12-18T09:23:07;21.85;;;12.25;;
38182;SDS011;23991;52.430;10.586;2022-12-18T09:25:34;19.77;;;10.77;;
38182;SDS011;23991;52.430;10.586;2022-12-18T09:28:01;21.60;;;11.80;;
38182;SDS011;23991;52.430;10.586;2022-12-18T09:30:27;24.73;;;13.10;;
38182;SDS011;23991;52.430;10.586;2022-12-18T09:32:53;21.58;;;12.40;;
38182;SDS011;23991;52.430;10.586;2022-12-18T09:35:19;22.67;;;11.82;;
38182;SDS011;23991;52.430;10.586;2022-12-18T09:37:44;20.10;;;12.13;;
38182;SDS011;23991;52.430;10.586;2022-12-18T09:40:16;21.95;;;12.43;;
38182;SDS011;23991;52.430;10.586;2022-12-18T09:42:48;23.30;;;12.60;;
38182;SDS011;23991;52.430;10.586;2022-12-18T09:45:18;24.42;;;12.98;;
38182;SDS011;23991;52.430;10.586;2022-12-18T09:47:45;23.13;;;12.77;;
38182;SDS011;23991;52.430;10.586;2022-12-18T09:50:33;22.20;;;12.00;;
38182;SDS011;23991;52.430;10.586;2022-12-18T09:53:06;22.87;;;12.03;;
38182;SDS011;23991;52.430;10.586;2022-12-18T09:55:40;23.83;;;11.80;;
38182;SDS011;23991;52.430;10.586;2022-12-18T09:58:22;23.73;;;13.27;;
38182;SDS011;23991;52.430;10.586;2022-12-18T10:00:53;22.40;;;12.48;;
38182;SDS011;23991;52.430;10.586;2022-12-18T10:03:19;24.80;;;12.30;;
38182;SDS011;23991;52.430;10.586;2022-12-18T10:06:02;29.15;;;15.23;;
38182;SDS011;23991;52.430;10.586;2022-12-18T10:21:15;23.17;;;13.55;;
38182;SDS011;23991;52.430;10.586;2022-12-18T10:25:59;24.10;;;13.70;;
38182;SDS011;23991;52.430;10.586;2022-12-18T10:28:32;23.23;;;12.85;;
38182;SDS011;23991;52.430;10.586;2022-12-18T10:31:00;23.38;;;13.73;;
38182;SDS011;23991;52.430;10.586;2022-12-18T10:33:30;22.80;;;12.20;;
38182;SDS011;23991;52.430;10.586;2022-12-18T10:35:57;25.23;;;13.30;;
38182;SDS011;23991;52.430;10.586;2022-12-18T10:38:24;23.85;;;13.27;;
38182;SDS011;23991;52.430;10.586;2022-12-18T10:43:28;23.30;;;11.90;;
38182;SDS011;23991;52.430;10.586;2022-12-18T10:48:25;26.38;;;12.98;;
38182;SDS011;23991;52.430;10.586;2022-12-18T10:50:52;23.02;;;12.57;;
38182;SDS011;23991;52.430;10.586;2022-12-18T10:53:28;21.50;;;11.82;;
38182;SDS011;23991;52.430;10.586;2022-12-18T10:55:57;21.73;;;12.48;;
38182;SDS011;23991;52.430;10.586;2022-12-18T10:58:27;22.42;;;11.98;;
38182;SDS011;23991;52.430;10.586;2022-12-18T11:01:13;21.63;;;12.15;;
38182;SDS011;23991;52.430;10.586;2022-12-18T11:03:58;17.73;;;10.75;;
38182;SDS011;23991;52.430;10.586;2022-12-18T11:06:26;19.55;;;11.63;;
38182;SDS011;23991;52.430;10.586;2022-12-18T11:11:24;20.00;;;11.57;;
38182;SDS011;23991;52.430;10.586;2022-12-18T11:13:56;20.05;;;11.60;;
38182;SDS011;23991;52.430;10.586;2022-12-18T11:16:43;17.92;;;11.35;;
38182;SDS011;23991;52.430;10.586;2022-12-18T11:21:59;20.83;;;11.88;;
38182;SDS011;23991;52.430;10.586;2022-12-18T11:24:35;18.85;;;12.02;;
38182;SDS011;23991;52.430;10.586;2022-12-18T11:27:02;19.23;;;11.20;;
38182;SDS011;23991;52.430;10.586;2022-12-18T11:29:33;19.83;;;11.82;;
38182;SDS011;23991;52.430;10.586;2022-12-18T11:34:46;19.83;;;11.52;;
38182;SDS011;23991;52.430;10.586;2022-12-18T11:37:16;21.38;;;12.98;;
38182;SDS011;23991;52.430;10.586;2022-12-18T11:39:58;22.05;;;12.75;;
38182;SDS011;23991;52.430;10.586;2022-12-18T11:45:01;26.25;;;14.70;;
38182;SDS011;23991;52.430;10.586;2022-12-18T11:47:57;23.27;;;12.77;;
38182;SDS011;23991;52.430;10.586;2022-12-18T11:50:37;34.85;;;19.55;;
38182;SDS011;23991;52.430;10.586;2022-12-18T11:53:16;20.10;;;10.52;;
38182;SDS011;23991;52.430;10.586;2022-12-18T11:55:51;29.65;;;16.38;;
38182;SDS011;23991;52.430;10.586;2022-12-18T12:14:41;24.77;;;14.07;;
38182;SDS011;23991;52.430;10.586;2022-12-18T12:17:19;23.63;;;14.05;;
38182;SDS011;23991;52.430;10.586;2022-12-18T12:20:13;26.92;;;13.63;;
38182;SDS011;23991;52.430;10.586;2022-12-18T12:22:58;23.40;;;13.32;;
38182;SDS011;23991;52.430;10.586;2022-12-18T12:25:57;25.67;;;14.82;;
38182;SDS011;23991;52.430;10.586;2022-12-18T12:39:10;23.65;;;12.40;;
38182;SDS011;23991;52.430;10.586;2022-12-18T12:41:40;23.50;;;12.25;;
38182;SDS011;23991;52.430;10.586;2022-12-18T12:44:39;20.92;;;11.73;;
38182;SDS011;23991;52.430;10.586;2022-12-18T12:47:18;21.77;;;12.70;;
38182;SDS011;23991;52.430;10.586;2022-12-18T12:49:48;25.83;;;13.13;;
38182;SDS011;23991;52.430;10.586;2022-12-18T12:52:16;22.80;;;13.52;;
38182;SDS011;23991;52.430;10.586;2022-12-18T12:54:49;22.40;;;13.95;;
38182;SDS011;23991;52.430;10.586;2022-12-18T12:58:03;22.38;;;13.30;;
38182;SDS011;23991;52.430;10.586;2022-12-18T13:00:19;23.88;;;13.18;;
38182;SDS011;23991;52.430;10.586;2022-12-18T13:02:54;23.27;;;14.45;;
38182;SDS011;23991;52.430;10.586;2022-12-18T13:05:34;22.60;;;13.05;;
38182;SDS011;23991;52.430;10.586;2022-12-18T13:08:34;20.73;;;12.05;;
38182;SDS011;23991;52.430;10.586;2022-12-18T13:14:39;21.25;;;11.63;;
38182;SDS011;23991;52.430;10.586;2022-12-18T13:20:02;16.90;;;10.48;;
38182;SDS011;23991;52.430;10.586;2022-12-18T13:22:49;19.65;;;11.05;;
38182;SDS011;23991;52.430;10.586;2022-12-18T13:25:34;18.05;;;10.57;;
38182;SDS011;23991;52.430;10.586;2022-12-18T13:28:03;19.13;;;10.77;;
38182;SDS011;23991;52.430;10.586;2022-12-18T13:35:41;16.60;;;9.80;;
38182;SDS011;23991;52.430;10.586;2022-12-18T13:41:00;17.52;;;10.95;;
38182;SDS011;23991;52.430;10.586;2022-12-18T13:43:27;19.58;;;11.15;;
38182;SDS011;23991;52.430;10.586;2022-12-18T13:49:02;21.67;;;11.27;;
38182;SDS011;23991;52.430;10.586;2022-12-18T13:51:46;22.08;;;11.85;;
38182;SDS011;23991;52.430;10.586;2022-12-18T13:54:17;19.45;;;11.10;;
38182;SDS011;23991;52.430;10.586;2022-12-18T13:56:46;19.95;;;11.25;;
38182;SDS011;23991;52.430;10.586;2022-12-18T13:59:18;18.83;;;10.45;;
38182;SDS011;23991;52.430;10.586;2022-12-18T14:01:55;19.42;;;10.40;;
38182;SDS011;23991;52.430;10.586;2022-12-18T14:06:55;27.85;;;15.07;;
38182;SDS011;23991;52.430;10.586;2022-12-18T14:09:31;34.85;;;15.50;;
38182;SDS011;23991;52.430;10.586;2022-12-18T14:12:02;31.13;;;15.25;;
38182;SDS011;23991;52.430;10.586;2022-12-18T14:14:48;21.10;;;13.23;;
38182;SDS011;23991;52.430;10.586;2022-12-18T14:17:16;26.85;;;13.55;;
38182;SDS011;23991;52.430;10.586;2022-12-18T14:19:43;27.98;;;14.60;;
38182;SDS011;23991;52.430;10.586;2022-12-18T14:22:18;21.23;;;11.30;;
38182;SDS011;23991;52.430;10.586;2022-12-18T14:27:46;15.25;;;8.38;;
38182;SDS011;23991;52.430;10.586;2022-12-18T14:33:03;13.55;;;8.18;;
38182;SDS011;23991;52.430;10.586;2022-12-18T14:35:28;15.07;;;9.27;;
38182;SDS011;23991;52.430;10.586;2022-12-18T14:38:08;13.02;;;7.85;;
38182;SDS011;23991;52.430;10.586;2022-12-18T14:40:34;21.20;;;9.32;;
38182;SDS011;23991;52.430;10.586;2022-12-18T14:42:59;16.05;;;9.45;;
38182;SDS011;23991;52.430;10.586;2022-12-18T14:45:59;19.08;;;9.35;;
38182;SDS011;23991;52.430;10.586;2022-12-18T14:48:19;16.42;;;9.27;;
38182;SDS011;23991;52.430;10.586;2022-12-18T14:51:16;17.45;;;9.82;;
38182;SDS011;23991;52.430;10.586;2022-12-18T14:53:47;18.33;;;10.23;;
38182;SDS011;23991;52.430;10.586;2022-12-18T14:56:27;18.90;;;10.57;;
38182;SDS011;23991;52.430;10.586;2022-12-18T15:01:28;18.95;;;10.38;;
38182;SDS011;23991;52.430;10.586;2022-12-18T15:03:57;19.13;;;9.35;;
38182;SDS011;23991;52.430;10.586;2022-12-18T15:06:26;17.58;;;10.02;;
38182;SDS011;23991;52.430;10.586;2022-12-18T15:08:57;17.00;;;8.98;;
38182;SDS011;23991;52.430;10.586;2022-12-18T15:11:30;17.27;;;9.18;;
38182;SDS011;23991;52.430;10.586;2022-12-18T15:13:57;20.38;;;10.68;;
38182;SDS011;23991;52.430;10.586;2022-12-18T15:16:24;21.85;;;10.23;;
38182;SDS011;23991;52.430;10.586;2022-12-18T15:18:50;18.85;;;9.80;;
38182;SDS011;23991;52.430;10.586;2022-12-18T15:21:19;19.90;;;9.40;;
38182;SDS011;23991;52.430;10.586;2022-12-18T15:26:12;14.68;;;8.25;;
38182;SDS011;23991;52.430;10.586;2022-12-18T15:28:52;18.17;;;9.77;;
38182;SDS011;23991;52.430;10.586;2022-12-18T15:36:19;16.25;;;9.27;;
38182;SDS011;23991;52.430;10.586;2022-12-18T15:38:47;15.10;;;8.68;;
38182;SDS011;23991;52.430;10.586;2022-12-18T15:41:14;15.02;;;8.73;;
38182;SDS011;23991;52.430;10.586;2022-12-18T15:43:40;14.13;;;7.68;;
38182;SDS011;23991;52.430;10.586;2022-12-18T15:46:09;13.75;;;8.18;;
38182;SDS011;23991;52.430;10.586;2022-12-18T15:48:47;15.00;;;8.93;;
38182;SDS011;23991;52.430;10.586;2022-12-18T15:53:45;16.15;;;8.52;;
38182;SDS011;23991;52.430;10.586;2022-12-18T15:56:12;17.27;;;9.10;;
38182;SDS011;23991;52.430;10.586;2022-12-18T15:58:58;18.30;;;9.75;;
38182;SDS011;23991;52.430;10.586;2022-12-18T16:01:25;18.23;;;8.70;;
38182;SDS011;23991;52.430;10.586;2022-12-18T16:03:52;17.15;;;8.40;;
38182;SDS011;23991;52.430;10.586;2022-12-18T16:06:19;13.25;;;7.15;;
38182;SDS011;23991;52.430;10.586;2022-12-18T16:08:44;13.00;;;7.15;;
38182;SDS011;23991;52.430;10.586;2022-12-18T16:11:29;13.30;;;7.53;;
38182;SDS011;23991;52.430;10.586;2022-12-18T16:14:22;14.25;;;7.45;;
38182;SDS011;23991;52.430;10.586;2022-12-18T16:16:52;15.75;;;7.40;;
38182;SDS011;23991;52.430;10.586;2022-12-18T16:19:20;15.98;;;7.53;;
38182;SDS011;23991;52.430;10.586;2022-12-18T16:21:46;13.88;;;6.88;;
38182;SDS011;23991;52.430;10.586;2022-12-18T16:24:20;12.25;;;6.63;;
38182;SDS011;23991;52.430;10.586;2022-12-18T16:26:48;17.83;;;8.60;;
38182;SDS011;23991;52.430;10.586;2022-12-18T16:29:16;16.45;;;8.38;;
38182;SDS011;23991;52.430;10.586;2022-12-18T16:31:43;15.63;;;8.30;;
38182;SDS011;23991;52.430;10.586;2022-12-18T16:34:12;13.38;;;7.80;;
38182;SDS011;23991;52.430;10.586;2022-12-18T16:36:44;13.50;;;7.93;;
38182;SDS011;23991;52.430;10.586;2022-12-18T16:39:10;15.20;;;7.78;;
38182;SDS011;23991;52.430;10.586;2022-12-18T16:41:35;14.20;;;8.18;;
38182;SDS011;23991;52.430;10.586;2022-12-18T16:44:04;13.25;;;7.78;;
38182;SDS011;23991;52.430;10.586;2022-12-18T16:46:32;15.88;;;7.65;;
38182;SDS011;23991;52.430;10.586;2022-12-18T16:48:58;16.38;;;7.85;;
38182;SDS011;23991;52.430;10.586;2022-12-18T16:51:25;20.00;;;7.50;;
38182;SDS011;23991;52.430;10.586;2022-12-18T16:53:52;16.42;;;7.43;;
38182;SDS011;23991;52.430;10.586;2022-12-18T17:03:06;16.33;;;8.38;;
38182;SDS011;23991;52.430;10.586;2022-12-18T17:05:32;12.77;;;7.53;;
38182;SDS011;23991;52.430;10.586;2022-12-18T17:07:57;12.20;;;6.78;;